createdAt,value
2023-04-18T00:01:03.045Z,71.41
2023-04-18T00:04:05.636Z,71.22
2023-04-18T00:07:10.610Z,70.76
2023-04-18T00:10:15.569Z,72.15
2023-04-18T00:13:20.979Z,72.19
2023-04-18T00:16:24.072Z,71.40
2023-04-18T00:19:26.395Z,71.99
2023-04-18T00:22:28.769Z,71.80
2023-04-18T00:25:31.076Z,72.27
2023-04-18T00:28:33.406Z,71.88
2023-04-18T00:31:35.692Z,71.47
2023-04-18T00:34:38.142Z,72.07
2023-04-18T00:37:40.588Z,71.96
2023-04-18T00:40:43.779Z,72.94
2023-04-18T00:43:46.146Z,72.85
2023-04-18T00:46:48.572Z,72.50
2023-04-18T00:49:53.586Z,71.34
2023-04-18T00:53:00.931Z,71.90
2023-04-18T00:56:04.523Z,71.47
2023-04-18T00:59:10.019Z,72.10
2023-04-18T01:02:14.963Z,71.75
2023-04-18T01:05:18.421Z,71.73
2023-04-18T01:08:21.901Z,72.04
2023-04-18T01:11:26.893Z,72.17
2023-04-18T01:14:36.559Z,71.47
2023-04-18T01:17:39.777Z,70.97
2023-04-18T01:20:46.732Z,71.36
2023-04-18T01:23:49.272Z,71.84
2023-04-18T01:26:51.656Z,71.61
2023-04-18T01:29:56.149Z,71.32
2023-04-18T01:32:58.549Z,71.15
2023-04-18T01:36:02.465Z,71.32
2023-04-18T01:39:12.230Z,71.60
2023-04-18T01:42:14.572Z,71.99
2023-04-18T01:45:22.367Z,70.74
2023-04-18T01:48:24.583Z,71.47
2023-04-18T01:51:29.330Z,70.98
2023-04-18T01:54:31.613Z,71.26
2023-04-18T01:57:36.750Z,71.01
2023-04-18T02:00:41.338Z,70.45
2023-04-18T02:03:43.942Z,70.68
2023-04-18T02:06:51.268Z,71.01
2023-04-18T02:09:53.556Z,69.99
2023-04-18T02:13:03.167Z,70.20
2023-04-18T02:16:15.119Z,70.47
2023-04-18T02:19:19.190Z,70.35
2023-04-18T02:22:21.493Z,70.94
2023-04-18T02:25:27.700Z,71.23
2023-04-18T02:28:29.992Z,71.19
2023-04-18T02:31:34.439Z,71.07
2023-04-18T02:34:39.514Z,71.29
2023-04-18T02:37:48.969Z,70.39
2023-04-18T02:40:52.695Z,71.63
2023-04-18T02:44:01.051Z,70.97
2023-04-18T02:47:05.969Z,70.32
2023-04-18T02:50:11.272Z,71.32
2023-04-18T02:53:23.936Z,71.56
2023-04-18T02:56:31.034Z,71.77
2023-04-18T02:59:53.581Z,71.46
2023-04-18T03:03:14.424Z,72.00
2023-04-18T03:06:59.301Z,72.17
2023-04-18T03:10:03.086Z,71.99
2023-04-18T03:13:09.472Z,73.05
2023-04-18T03:16:12.547Z,72.60
2023-04-18T03:19:18.633Z,71.82
2023-04-18T03:22:21.434Z,71.74
2023-04-18T03:25:37.254Z,71.80
2023-04-18T03:28:40.891Z,72.26
2023-04-18T03:31:46.358Z,71.68
2023-04-18T03:34:54.395Z,71.78
2023-04-18T03:38:02.015Z,71.80
2023-04-18T03:41:06.761Z,72.14
2023-04-18T03:44:12.514Z,72.03
2023-04-18T03:47:17.026Z,72.54
2023-04-18T03:50:26.009Z,72.97
2023-04-18T03:53:31.038Z,72.77
2023-04-18T03:56:36.468Z,72.26
2023-04-18T03:59:41.084Z,72.13
2023-04-18T04:02:48.501Z,72.20
2023-04-18T04:05:58.211Z,72.56
2023-04-18T04:09:01.487Z,72.13
2023-04-18T04:12:05.141Z,72.31
2023-04-18T04:15:11.480Z,72.31
2023-04-18T04:18:29.733Z,73.39
2023-04-18T04:21:33.186Z,73.71
2023-04-18T04:24:42.161Z,74.35
2023-04-18T04:27:54.462Z,73.55
2023-04-18T04:31:01.071Z,73.90
2023-04-18T04:34:06.271Z,73.89
2023-04-18T04:37:14.229Z,73.69
2023-04-18T04:40:32.544Z,74.49
2023-04-18T04:43:44.105Z,75.00
2023-04-18T04:46:49.844Z,74.61
2023-04-18T04:49:57.001Z,75.60
2023-04-18T04:53:01.645Z,75.58
2023-04-18T04:56:04.918Z,77.03
2023-04-18T04:59:09.881Z,77.24
2023-04-18T05:02:16.774Z,77.01
2023-04-18T05:05:19.544Z,77.81
2023-04-18T05:08:24.545Z,77.32
2023-04-18T05:11:31.489Z,75.99
2023-04-18T05:14:38.566Z,75.80
2023-04-18T05:17:43.184Z,75.85
2023-04-18T05:20:47.910Z,76.61
2023-04-18T05:23:50.678Z,76.26
2023-04-18T05:26:56.037Z,76.00
2023-04-18T05:29:58.452Z,75.14
2023-04-18T05:33:00.972Z,75.45
2023-04-18T05:36:03.501Z,74.32
2023-04-18T05:39:10.745Z,73.37
2023-04-18T05:42:12.976Z,73.52
2023-04-18T05:45:15.311Z,73.33
2023-04-18T05:48:21.350Z,73.87
2023-04-18T05:51:28.696Z,72.69
2023-04-18T05:54:33.149Z,72.93
2023-04-18T05:57:35.460Z,71.91
2023-04-18T06:00:37.715Z,71.20
2023-04-18T06:03:45.214Z,71.40
2023-04-18T06:06:52.471Z,71.18
2023-04-18T06:09:55.078Z,70.35
2023-04-18T06:12:57.342Z,70.71
2023-04-18T06:16:00.632Z,69.94
2023-04-18T06:19:06.222Z,70.04
2023-04-18T06:22:08.635Z,69.53
2023-04-18T06:25:10.989Z,69.20
2023-04-18T06:28:16.025Z,69.53
2023-04-18T06:31:18.389Z,68.38
2023-04-18T06:34:20.822Z,68.28
2023-04-18T06:37:24.062Z,67.12
2023-04-18T06:40:26.489Z,66.70
2023-04-18T06:43:28.821Z,65.48
2023-04-18T06:46:32.199Z,63.77
2023-04-18T06:49:34.617Z,62.52
2023-04-18T06:52:44.265Z,61.44
2023-04-18T06:55:48.830Z,60.86
2023-04-18T06:58:52.874Z,60.81
2023-04-18T07:01:57.745Z,60.76
2023-04-18T07:05:02.529Z,61.80
2023-04-18T07:08:07.502Z,60.71
2023-04-18T07:11:13.299Z,60.66
2023-04-18T07:14:15.724Z,58.66
2023-04-18T07:17:21.961Z,58.71
2023-04-18T07:20:26.783Z,58.95
2023-04-18T07:23:28.993Z,58.34
2023-04-18T07:26:31.815Z,59.85
2023-04-18T07:29:34.166Z,59.46
2023-04-18T07:32:36.495Z,58.53
2023-04-18T07:35:41.446Z,58.54
2023-04-18T07:38:46.625Z,58.15
2023-04-18T07:41:48.917Z,57.54
2023-04-18T07:44:56.940Z,56.22
2023-04-18T07:47:59.238Z,56.24
2023-04-18T07:51:06.342Z,54.83
2023-04-18T07:54:11.055Z,54.29
2023-04-18T07:57:15.449Z,54.04
2023-04-18T08:00:20.940Z,53.21
2023-04-18T08:03:27.756Z,52.11
2023-04-18T08:06:30.388Z,51.74
2023-04-18T08:09:34.913Z,51.81
2023-04-18T08:12:37.529Z,52.51
2023-04-18T08:15:42.582Z,52.46
2023-04-18T08:18:46.008Z,53.37
2023-04-18T08:21:51.246Z,53.81
2023-04-18T08:25:04.378Z,53.73
2023-04-18T08:28:12.651Z,52.88
2023-04-18T08:31:17.571Z,52.46
2023-04-18T08:34:19.874Z,48.11
2023-04-18T08:37:27.857Z,45.11
2023-04-18T08:40:30.481Z,45.15
2023-04-18T08:43:35.228Z,49.59
2023-04-18T08:46:39.959Z,47.11
2023-04-18T08:49:47.805Z,40.55
2023-04-18T08:52:53.770Z,37.16
2023-04-18T08:55:57.117Z,36.99
2023-04-18T08:59:00.348Z,37.97
2023-04-18T09:02:06.503Z,38.84
2023-04-18T09:05:14.399Z,38.28
2023-04-18T09:08:24.615Z,36.73
2023-04-18T09:11:34.447Z,38.35
2023-04-18T09:14:37.626Z,39.66
2023-04-18T09:17:49.542Z,40.34
2023-04-18T09:20:54.951Z,39.94
2023-04-18T09:24:18.003Z,41.95
2023-04-18T09:27:24.084Z,42.43
2023-04-18T09:30:51.516Z,42.03
2023-04-18T09:34:02.132Z,42.91
2023-04-18T09:37:15.009Z,44.44
2023-04-18T09:40:20.216Z,43.39
2023-04-18T09:43:22.490Z,43.59
2023-04-18T09:46:25.880Z,43.43
2023-04-18T09:49:30.922Z,42.57
2023-04-18T09:52:39.328Z,41.65
2023-04-18T09:55:46.451Z,40.87
2023-04-18T09:58:57.109Z,41.17
2023-04-18T10:02:03.738Z,44.00
2023-04-18T10:05:08.275Z,45.27
2023-04-18T10:08:11.946Z,44.98
2023-04-18T10:11:18.582Z,44.45
2023-04-18T10:14:23.942Z,42.51
2023-04-18T10:17:29.776Z,42.42
2023-04-18T10:20:35.505Z,41.91
2023-04-18T10:23:43.245Z,35.59
2023-04-18T10:26:46.945Z,35.50
2023-04-18T10:29:56.642Z,36.24
2023-04-18T10:32:58.976Z,37.16
2023-04-18T10:36:17.021Z,36.69
2023-04-18T10:39:26.397Z,37.69
2023-04-18T10:42:54.992Z,41.25
2023-04-18T10:46:23.796Z,40.58
2023-04-18T10:49:32.853Z,40.46
2023-04-18T10:52:37.932Z,40.19
2023-04-18T10:55:49.965Z,40.95
2023-04-18T10:58:53.505Z,40.21
2023-04-18T11:02:22.898Z,37.28
2023-04-18T11:05:30.295Z,36.56
2023-04-18T11:08:34.962Z,37.88
2023-04-18T11:11:37.272Z,37.15
2023-04-18T11:14:46.440Z,36.86
2023-04-18T11:17:55.894Z,36.30
2023-04-18T11:21:03.826Z,36.39
2023-04-18T11:24:06.391Z,36.50
2023-04-18T11:27:10.015Z,37.66
2023-04-18T11:30:16.753Z,39.18
2023-04-18T11:33:22.436Z,37.83
2023-04-18T11:36:24.778Z,36.84
2023-04-18T11:39:27.223Z,38.92
2023-04-18T11:42:32.976Z,35.89
2023-04-18T11:45:35.474Z,35.38
2023-04-18T11:48:42.357Z,34.52
2023-04-18T11:51:46.308Z,36.24
2023-04-18T11:54:48.566Z,34.92
2023-04-18T11:58:00.432Z,35.82
2023-04-18T12:01:22.390Z,36.00
2023-04-18T12:04:24.850Z,34.79
2023-04-18T12:07:44.625Z,34.52
2023-04-18T12:10:47.783Z,34.36
2023-04-18T12:13:59.040Z,32.76
2023-04-18T12:17:06.476Z,33.30
2023-04-18T12:20:11.455Z,33.10
2023-04-18T12:23:39.799Z,40.15
2023-04-18T12:26:45.874Z,40.72
2023-04-18T12:29:50.685Z,32.90
2023-04-18T12:32:55.068Z,32.41
2023-04-18T12:35:59.734Z,32.53
2023-04-18T12:39:02.324Z,33.43
2023-04-18T12:42:09.488Z,33.66
2023-04-18T12:45:12.753Z,33.75
2023-04-18T12:48:22.371Z,34.09
2023-04-18T12:51:26.607Z,33.88
2023-04-18T12:54:28.895Z,33.89
2023-04-18T12:57:34.346Z,33.75
2023-04-18T13:00:41.370Z,33.62
2023-04-18T13:03:53.469Z,34.04
2023-04-18T13:07:06.194Z,34.66
2023-04-18T13:10:11.590Z,33.49
2023-04-18T13:13:13.927Z,33.18
2023-04-18T13:16:18.411Z,33.48
2023-04-18T13:19:20.697Z,32.96
2023-04-18T13:22:28.486Z,32.51
2023-04-18T13:25:30.862Z,33.24
2023-04-18T13:28:33.538Z,33.02
2023-04-18T13:31:38.244Z,32.75
2023-04-18T13:34:46.059Z,32.89
2023-04-18T13:37:50.942Z,32.57
2023-04-18T13:41:04.708Z,32.98
2023-04-18T13:44:14.404Z,32.98
2023-04-18T13:47:19.240Z,31.56
2023-04-18T13:50:23.114Z,30.80
2023-04-18T13:53:25.471Z,30.62
2023-04-18T13:56:29.275Z,30.63
2023-04-18T13:59:34.256Z,30.60
2023-04-18T14:02:42.314Z,29.85
2023-04-18T14:05:49.560Z,29.72
2023-04-18T14:08:51.934Z,28.69
2023-04-18T14:11:58.218Z,29.09
2023-04-18T14:15:02.957Z,28.73
2023-04-18T14:18:07.658Z,28.68
2023-04-18T14:21:12.768Z,28.43
2023-04-18T14:24:17.576Z,28.71
2023-04-18T14:27:20.499Z,28.59
2023-04-18T14:30:22.885Z,28.31
2023-04-18T14:33:27.543Z,28.16
2023-04-18T14:36:29.880Z,28.31
2023-04-18T14:39:32.239Z,29.40
2023-04-18T14:42:34.425Z,30.37
2023-04-18T14:45:36.815Z,29.83
2023-04-18T14:48:46.850Z,29.34
2023-04-18T14:51:51.457Z,29.41
2023-04-18T14:54:56.632Z,30.34
2023-04-18T14:57:58.850Z,31.16
2023-04-18T15:01:03.189Z,30.60
2023-04-18T15:04:07.775Z,30.50
2023-04-18T15:07:10.328Z,30.52
2023-04-18T15:10:15.331Z,30.52
2023-04-18T15:13:17.637Z,30.29
2023-04-18T15:16:19.912Z,29.95
2023-04-18T15:19:22.272Z,29.86
2023-04-18T15:22:27.068Z,31.55
2023-04-18T15:25:30.561Z,30.77
2023-04-18T15:28:32.916Z,31.67
2023-04-18T15:31:39.177Z,31.59
2023-04-18T15:34:41.657Z,31.71
2023-04-18T15:37:43.913Z,31.92
2023-04-18T15:40:46.149Z,32.53
2023-04-18T15:43:52.897Z,32.94
2023-04-18T15:46:55.525Z,32.70
2023-04-18T15:49:57.813Z,33.29
2023-04-18T15:53:02.157Z,32.50
2023-04-18T15:56:05.957Z,32.70
2023-04-18T15:59:10.969Z,32.67
2023-04-18T16:02:13.293Z,32.52
2023-04-18T16:05:17.718Z,32.63
2023-04-18T16:08:22.293Z,32.48
2023-04-18T16:11:27.587Z,32.99
2023-04-18T16:14:30.592Z,32.77
2023-04-18T16:17:36.573Z,32.78
2023-04-18T16:20:38.972Z,32.98
2023-04-18T16:23:46.225Z,32.46
2023-04-18T16:26:49.616Z,32.12
2023-04-18T16:29:54.356Z,32.19
2023-04-18T16:32:58.859Z,32.42
2023-04-18T16:36:04.544Z,31.66
2023-04-18T16:39:09.121Z,31.86
2023-04-18T16:42:15.678Z,32.24
2023-04-18T16:45:18.354Z,32.53
2023-04-18T16:48:26.299Z,31.85
2023-04-18T16:51:31.292Z,31.95
2023-04-18T16:54:34.795Z,32.34
2023-04-18T16:57:37.302Z,32.57
2023-04-18T17:00:42.167Z,32.93
2023-04-18T17:03:46.809Z,33.06
2023-04-18T17:06:51.474Z,33.01
2023-04-18T17:09:54.338Z,32.78
2023-04-18T17:12:59.834Z,32.72
2023-04-18T17:16:02.209Z,32.63
2023-04-18T17:19:04.812Z,33.29
2023-04-18T17:22:12.086Z,33.21
2023-04-18T17:25:14.555Z,33.23
2023-04-18T17:28:19.100Z,33.50
2023-04-18T17:31:23.941Z,33.70
2023-04-18T17:34:28.672Z,33.30
2023-04-18T17:37:33.531Z,34.04
2023-04-18T17:40:40.682Z,34.12
2023-04-18T17:43:45.885Z,33.49
2023-04-18T17:46:50.007Z,34.07
2023-04-18T17:49:55.176Z,34.23
2023-04-18T17:52:57.642Z,34.13
2023-04-18T17:56:03.721Z,34.69
2023-04-18T17:59:12.219Z,34.74
2023-04-18T18:02:17.163Z,34.93
2023-04-18T18:05:20.973Z,35.41
2023-04-18T18:08:23.356Z,35.97
2023-04-18T18:11:27.261Z,35.62
2023-04-18T18:14:29.544Z,36.60
2023-04-18T18:17:31.901Z,36.16
2023-04-18T18:20:42.217Z,35.89
2023-04-18T18:23:44.492Z,35.93
2023-04-18T18:26:49.635Z,36.46
2023-04-18T18:29:53.225Z,36.56
2023-04-18T18:33:03.788Z,36.31
2023-04-18T18:36:08.367Z,36.60
2023-04-18T18:39:14.501Z,36.73
2023-04-18T18:42:19.256Z,36.76
2023-04-18T18:45:22.688Z,36.38
2023-04-18T18:48:30.426Z,36.35
2023-04-18T18:51:35.779Z,36.93
2023-04-18T18:54:38.050Z,36.86
2023-04-18T18:57:42.613Z,37.17
2023-04-18T19:00:51.139Z,37.33
2023-04-18T19:03:53.596Z,37.57
2023-04-18T19:06:58.457Z,37.71
2023-04-18T19:10:05.876Z,37.84
2023-04-18T19:13:08.162Z,37.40
2023-04-18T19:16:16.348Z,37.38
2023-04-18T19:19:18.615Z,37.57
2023-04-18T19:22:20.848Z,38.14
2023-04-18T19:25:23.224Z,38.23
2023-04-18T19:28:27.891Z,38.18
2023-04-18T19:31:32.755Z,38.39
2023-04-18T19:34:37.974Z,38.70
2023-04-18T19:37:43.213Z,39.20
2023-04-18T19:40:47.721Z,39.29
2023-04-18T19:43:50.113Z,39.45
2023-04-18T19:46:54.638Z,39.76
2023-04-18T19:50:02.366Z,39.71
2023-04-18T19:53:07.097Z,39.76
2023-04-18T19:56:13.670Z,40.20
2023-04-18T19:59:16.242Z,38.85
2023-04-18T20:02:18.792Z,38.98
2023-04-18T20:05:21.294Z,38.78
2023-04-18T20:08:23.742Z,39.10
2023-04-18T20:11:26.275Z,39.28
2023-04-18T20:14:30.509Z,39.36
2023-04-18T20:17:35.133Z,39.16
2023-04-18T20:20:37.490Z,38.63
2023-04-18T20:23:42.716Z,38.88
2023-04-18T20:26:47.793Z,39.01
2023-04-18T20:29:52.599Z,38.74
2023-04-18T20:32:55.069Z,38.56
2023-04-18T20:35:58.913Z,38.27
2023-04-18T20:39:02.440Z,38.25
2023-04-18T20:42:05.026Z,38.02
2023-04-18T20:45:11.144Z,39.27
2023-04-18T20:48:16.102Z,40.10
2023-04-18T20:51:23.282Z,39.70
2023-04-18T20:54:27.948Z,39.64
2023-04-18T20:57:32.574Z,39.55
2023-04-18T21:00:34.797Z,40.23
2023-04-18T21:03:39.366Z,39.25
2023-04-18T21:06:47.067Z,39.63
2023-04-18T21:09:54.490Z,39.56
2023-04-18T21:12:58.841Z,39.92
2023-04-18T21:16:10.282Z,39.77
2023-04-18T21:19:12.926Z,39.97
2023-04-18T21:22:16.535Z,40.19
2023-04-18T21:25:21.216Z,40.83
2023-04-18T21:28:26.329Z,40.26
2023-04-18T21:31:33.394Z,40.45
2023-04-18T21:34:35.649Z,40.43
2023-04-18T21:37:40.148Z,40.55
2023-04-18T21:40:44.884Z,41.44
2023-04-18T21:43:52.398Z,41.74
2023-04-18T21:46:57.057Z,41.70
2023-04-18T21:50:02.330Z,41.61
2023-04-18T21:53:04.568Z,41.83
2023-04-18T21:56:09.424Z,42.15
2023-04-18T21:59:16.381Z,42.78
2023-04-18T22:02:21.595Z,42.44
2023-04-18T22:05:26.277Z,42.66
2023-04-18T22:08:32.251Z,42.49
2023-04-18T22:11:39.411Z,42.38
2023-04-18T22:14:48.439Z,43.08
2023-04-18T22:17:54.290Z,43.41
2023-04-18T22:20:59.587Z,43.87
2023-04-18T22:24:01.941Z,43.25
2023-04-18T22:27:04.338Z,44.07
2023-04-18T22:30:09.532Z,43.74
2023-04-18T22:33:14.101Z,44.66
2023-04-18T22:36:20.969Z,43.77
2023-04-18T22:39:26.194Z,44.32
2023-04-18T22:42:29.901Z,44.31
2023-04-18T22:45:36.284Z,43.61
2023-04-18T22:48:44.910Z,44.08
2023-04-18T22:51:47.393Z,44.17
2023-04-18T22:54:49.611Z,44.02
2023-04-18T22:57:51.901Z,43.97
2023-04-18T23:00:54.132Z,44.54
2023-04-18T23:03:56.748Z,43.82
2023-04-18T23:06:59.118Z,43.35
2023-04-18T23:10:04.125Z,43.71
2023-04-18T23:13:10.988Z,43.77
2023-04-18T23:16:15.721Z,43.47
2023-04-18T23:19:17.956Z,42.95
2023-04-18T23:22:24.138Z,43.25
2023-04-18T23:25:26.468Z,42.27
2023-04-18T23:28:28.864Z,42.86
2023-04-18T23:31:34.186Z,42.23
2023-04-18T23:34:38.752Z,42.22
2023-04-18T23:37:43.627Z,41.83
2023-04-18T23:40:45.854Z,41.98
2023-04-18T23:43:52.439Z,42.29
2023-04-18T23:46:58.598Z,42.31
2023-04-18T23:50:04.310Z,42.30
2023-04-18T23:53:06.568Z,42.07
2023-04-18T23:56:08.821Z,42.16
2023-04-18T23:59:13.299Z,41.93
